createdAt,value
2023-05-19T00:00:58.993Z,7.33
2023-05-19T00:03:26.930Z,7.27
2023-05-19T00:05:54.338Z,7.20
2023-05-19T00:08:23.761Z,7.18
2023-05-19T00:10:50.705Z,7.13
2023-05-19T00:13:17.517Z,7.08
2023-05-19T00:15:44.347Z,7.05
2023-05-19T00:18:14.023Z,7.01
2023-05-19T00:20:41.348Z,6.98
2023-05-19T00:23:08.180Z,6.94
2023-05-19T00:25:34.666Z,6.90
2023-05-19T00:28:02.361Z,6.87
2023-05-19T00:30:30.266Z,6.85
2023-05-19T00:32:57.075Z,6.83
2023-05-19T00:35:24.391Z,6.82
2023-05-19T00:37:50.947Z,6.83
2023-05-19T00:40:17.571Z,6.79
2023-05-19T00:42:44.033Z,6.74
2023-05-19T00:45:10.602Z,6.70
2023-05-19T00:47:37.081Z,6.68
2023-05-19T00:50:03.641Z,6.68
2023-05-19T00:52:30.154Z,6.63
2023-05-19T00:54:56.626Z,6.61
2023-05-19T00:57:23.591Z,6.56
2023-05-19T00:59:50.245Z,6.55
2023-05-19T01:02:16.724Z,6.54
2023-05-19T01:04:44.756Z,6.51
2023-05-19T01:07:12.490Z,6.46
2023-05-19T01:09:40.626Z,6.44
2023-05-19T01:12:08.664Z,6.43
2023-05-19T01:14:35.183Z,6.37
2023-05-19T01:17:09.931Z,6.32
2023-05-19T01:20:05.497Z,6.29
2023-05-19T01:23:09.206Z,6.25
2023-05-19T01:26:09.975Z,6.20
2023-05-19T01:29:02.623Z,6.18
2023-05-19T01:31:29.723Z,6.16
2023-05-19T01:33:57.190Z,6.13
2023-05-19T01:36:26.006Z,6.06
2023-05-19T01:38:57.288Z,6.05
2023-05-19T01:41:26.264Z,6.03
2023-05-19T01:43:54.178Z,6.04
2023-05-19T01:46:22.234Z,6.01
2023-05-19T01:48:48.994Z,6.00
2023-05-19T01:51:15.513Z,5.97
2023-05-19T01:53:42.580Z,5.94
2023-05-19T01:56:09.273Z,5.90
2023-05-19T01:58:53.428Z,5.84
2023-05-19T02:01:27.030Z,5.79
2023-05-19T02:04:06.105Z,5.75
2023-05-19T02:06:45.970Z,5.71
2023-05-19T02:09:23.439Z,5.70
2023-05-19T02:11:55.901Z,5.71
2023-05-19T02:14:29.382Z,5.72
2023-05-19T02:16:57.762Z,5.74
2023-05-19T02:19:26.811Z,5.76
2023-05-19T02:21:56.257Z,5.75
2023-05-19T02:24:23.105Z,5.71
2023-05-19T02:26:51.858Z,5.71
2023-05-19T02:29:19.541Z,5.66
2023-05-19T02:31:46.449Z,5.62
2023-05-19T02:34:13.368Z,5.55
2023-05-19T02:36:42.970Z,5.52
2023-05-19T02:39:12.928Z,5.49
2023-05-19T02:41:39.416Z,5.46
2023-05-19T02:44:05.954Z,5.44
2023-05-19T02:46:32.565Z,5.41
2023-05-19T02:48:59.452Z,5.39
2023-05-19T02:51:25.920Z,5.39
2023-05-19T02:53:52.406Z,5.37
2023-05-19T02:56:18.935Z,5.36
2023-05-19T02:58:45.478Z,5.33
2023-05-19T03:01:12.108Z,5.29
2023-05-19T03:03:38.657Z,5.30
2023-05-19T03:06:08.668Z,5.28
2023-05-19T03:08:36.277Z,5.29
2023-05-19T03:11:03.118Z,5.28
2023-05-19T03:13:29.806Z,5.29
2023-05-19T03:15:58.731Z,5.28
2023-05-19T03:18:26.437Z,5.29
2023-05-19T03:20:56.544Z,5.28
2023-05-19T03:23:23.180Z,5.26
2023-05-19T03:25:49.835Z,5.28
2023-05-19T03:28:17.145Z,5.28
2023-05-19T03:30:43.631Z,5.28
2023-05-19T03:33:17.868Z,5.25
2023-05-19T03:35:45.406Z,5.23
2023-05-19T03:38:12.298Z,5.22
2023-05-19T03:40:44.035Z,5.20
2023-05-19T03:43:11.479Z,5.20
2023-05-19T03:45:45.420Z,5.18
2023-05-19T03:48:32.155Z,5.16
2023-05-19T03:51:18.929Z,5.15
2023-05-19T03:53:47.036Z,5.18
2023-05-19T03:56:13.927Z,5.21
2023-05-19T03:58:44.389Z,5.24
2023-05-19T04:01:11.330Z,5.25
2023-05-19T04:03:37.804Z,5.25
2023-05-19T04:06:04.464Z,5.23
2023-05-19T04:08:32.071Z,5.24
2023-05-19T04:10:58.546Z,5.25
2023-05-19T04:13:25.106Z,5.28
2023-05-19T04:15:51.797Z,5.32
2023-05-19T04:18:18.441Z,5.33
2023-05-19T04:20:44.885Z,5.36
2023-05-19T04:23:11.354Z,5.37
2023-05-19T04:25:38.089Z,5.39
2023-05-19T04:28:04.596Z,5.46
2023-05-19T04:30:31.418Z,5.53
2023-05-19T04:32:59.186Z,5.59
2023-05-19T04:35:25.755Z,5.67
2023-05-19T04:37:54.275Z,5.74
2023-05-19T04:40:24.917Z,5.76
2023-05-19T04:42:52.438Z,5.83
2023-05-19T04:45:19.320Z,5.86
2023-05-19T04:47:49.562Z,5.89
2023-05-19T04:50:16.869Z,5.95
2023-05-19T04:52:45.551Z,6.01
2023-05-19T04:55:12.966Z,6.11
2023-05-19T04:57:39.601Z,6.16
2023-05-19T05:00:13.281Z,6.23
2023-05-19T05:02:52.404Z,6.32
2023-05-19T05:05:21.087Z,6.37
2023-05-19T05:07:47.752Z,6.46
2023-05-19T05:10:14.445Z,6.55
2023-05-19T05:12:41.444Z,6.71
2023-05-19T05:15:08.714Z,6.95
2023-05-19T05:17:37.599Z,7.74
2023-05-19T05:20:06.210Z,9.65
2023-05-19T05:22:33.470Z,11.54
2023-05-19T05:25:01.814Z,12.97
2023-05-19T05:27:28.574Z,14.05
2023-05-19T05:29:56.448Z,15.10
2023-05-19T05:32:26.095Z,15.51
2023-05-19T05:34:52.753Z,15.77
2023-05-19T05:37:19.249Z,16.43
2023-05-19T05:39:45.824Z,16.47
2023-05-19T05:42:13.131Z,15.90
2023-05-19T05:44:40.436Z,14.44
2023-05-19T05:47:07.617Z,15.09
2023-05-19T05:49:38.118Z,16.27
2023-05-19T05:52:06.928Z,16.89
2023-05-19T05:54:41.051Z,17.75
2023-05-19T05:57:08.744Z,18.01
2023-05-19T05:59:35.201Z,18.43
2023-05-19T06:02:01.724Z,17.52
2023-05-19T06:04:28.793Z,16.73
2023-05-19T06:07:00.978Z,16.18
2023-05-19T06:09:30.862Z,16.07
2023-05-19T06:11:59.198Z,16.08
2023-05-19T06:14:28.956Z,17.33
2023-05-19T06:17:13.957Z,17.30
2023-05-19T06:19:40.613Z,17.44
2023-05-19T06:22:07.145Z,17.79
2023-05-19T06:24:33.886Z,18.57
2023-05-19T06:27:00.427Z,18.00
2023-05-19T06:29:26.939Z,17.72
2023-05-19T06:31:55.675Z,17.30
2023-05-19T06:34:22.197Z,17.54
2023-05-19T06:36:48.697Z,17.76
2023-05-19T06:39:16.124Z,17.94
2023-05-19T06:41:42.950Z,17.93
2023-05-19T06:44:09.598Z,18.68
2023-05-19T06:46:36.325Z,19.25
2023-05-19T06:49:03.949Z,18.76
2023-05-19T06:51:35.315Z,18.29
2023-05-19T06:54:02.084Z,18.83
2023-05-19T06:56:28.759Z,18.89
2023-05-19T06:58:55.914Z,19.13
2023-05-19T07:01:27.666Z,19.54
2023-05-19T07:03:55.685Z,19.37
2023-05-19T07:06:22.403Z,19.62
2023-05-19T07:08:50.476Z,18.78
2023-05-19T07:11:17.624Z,17.77
2023-05-19T07:13:44.680Z,17.10
2023-05-19T07:16:11.895Z,16.85
2023-05-19T07:18:38.711Z,16.91
2023-05-19T07:21:05.500Z,16.18
2023-05-19T07:23:32.119Z,16.30
2023-05-19T07:25:58.615Z,16.51
2023-05-19T07:28:25.283Z,16.77
2023-05-19T07:30:51.984Z,16.89
2023-05-19T07:33:18.543Z,16.47
2023-05-19T07:35:46.196Z,16.70
2023-05-19T07:38:12.639Z,16.77
2023-05-19T07:40:39.216Z,17.39
2023-05-19T07:43:05.723Z,17.64
2023-05-19T07:45:32.156Z,17.93
2023-05-19T07:47:58.650Z,17.42
2023-05-19T07:50:25.473Z,17.29
2023-05-19T07:52:51.951Z,17.33
2023-05-19T07:55:19.154Z,16.91
2023-05-19T07:57:45.701Z,17.19
2023-05-19T08:00:13.403Z,17.50
2023-05-19T08:02:41.057Z,17.84
2023-05-19T08:05:09.406Z,17.53
2023-05-19T08:07:36.147Z,17.31
2023-05-19T08:10:03.753Z,17.23
2023-05-19T08:12:30.304Z,16.94
2023-05-19T08:14:58.191Z,17.52
2023-05-19T08:17:26.345Z,17.81
2023-05-19T08:19:53.384Z,17.67
2023-05-19T08:22:19.881Z,17.93
2023-05-19T08:24:46.365Z,18.31
2023-05-19T08:27:12.789Z,18.53
2023-05-19T08:29:39.218Z,18.77
2023-05-19T08:32:05.844Z,18.99
2023-05-19T08:34:32.779Z,18.84
2023-05-19T08:36:59.762Z,18.53
2023-05-19T08:39:27.010Z,18.41
2023-05-19T08:41:54.200Z,18.63
2023-05-19T08:44:20.780Z,18.36
2023-05-19T08:46:47.698Z,18.43
2023-05-19T08:49:16.743Z,18.17
2023-05-19T08:51:50.421Z,18.27
2023-05-19T08:54:18.132Z,18.47
2023-05-19T08:56:47.966Z,18.95
2023-05-19T08:59:17.764Z,18.96
2023-05-19T09:01:45.855Z,18.43
2023-05-19T09:04:13.266Z,18.16
2023-05-19T09:06:42.295Z,18.29
2023-05-19T09:09:09.198Z,18.76
2023-05-19T09:11:37.501Z,18.62
2023-05-19T09:14:05.061Z,18.62
2023-05-19T09:16:32.905Z,18.59
2023-05-19T09:19:01.105Z,18.49
2023-05-19T09:21:32.228Z,18.59
2023-05-19T09:24:05.055Z,18.87
2023-05-19T09:26:39.179Z,18.76
2023-05-19T09:29:13.617Z,19.12
2023-05-19T09:31:47.393Z,19.70
2023-05-19T09:34:13.928Z,19.99
2023-05-19T09:36:42.238Z,20.31
2023-05-19T09:39:16.435Z,20.03
2023-05-19T09:41:43.304Z,19.86
2023-05-19T09:44:29.262Z,19.84
2023-05-19T09:46:56.748Z,19.84
2023-05-19T09:49:29.674Z,20.23
2023-05-19T09:51:57.589Z,20.75
2023-05-19T09:54:25.180Z,21.03
2023-05-19T09:57:03.557Z,20.74
2023-05-19T09:59:33.452Z,20.50
2023-05-19T10:02:02.057Z,20.45
2023-05-19T10:04:30.175Z,20.28
2023-05-19T10:07:05.373Z,20.02
2023-05-19T10:09:32.208Z,19.81
2023-05-19T10:11:59.205Z,20.02
2023-05-19T10:14:27.922Z,20.04
2023-05-19T10:16:56.515Z,19.94
2023-05-19T10:19:25.269Z,20.10
2023-05-19T10:21:52.411Z,20.00
2023-05-19T10:24:19.450Z,20.06
2023-05-19T10:26:51.561Z,19.83
2023-05-19T10:29:23.112Z,20.49
2023-05-19T10:31:52.546Z,21.02
2023-05-19T10:34:19.039Z,20.87
2023-05-19T10:36:57.064Z,20.58
2023-05-19T10:39:35.392Z,19.92
2023-05-19T10:42:10.836Z,20.14
2023-05-19T10:45:14.647Z,20.68
2023-05-19T10:47:41.997Z,21.05
2023-05-19T10:50:10.005Z,21.14
2023-05-19T10:52:40.400Z,21.03
2023-05-19T10:55:17.386Z,20.87
2023-05-19T10:57:54.426Z,21.16
2023-05-19T11:00:28.467Z,21.43
2023-05-19T11:03:13.388Z,21.15
2023-05-19T11:05:40.005Z,20.74
2023-05-19T11:08:11.481Z,21.11
2023-05-19T11:10:38.285Z,20.88
2023-05-19T11:13:06.536Z,21.12
2023-05-19T11:15:37.239Z,21.13
2023-05-19T11:18:05.016Z,20.94
2023-05-19T11:20:35.240Z,20.54
2023-05-19T11:23:17.944Z,21.10
2023-05-19T11:25:49.265Z,21.30
2023-05-19T11:28:18.960Z,21.30
2023-05-19T11:30:49.353Z,21.20
2023-05-19T11:33:19.211Z,21.29
2023-05-19T11:35:51.028Z,21.48
2023-05-19T11:38:19.800Z,21.64
2023-05-19T11:40:47.689Z,22.04
2023-05-19T11:43:14.117Z,21.93
2023-05-19T11:45:40.712Z,21.60
2023-05-19T11:48:11.378Z,21.35
2023-05-19T11:50:40.478Z,21.43
2023-05-19T11:53:07.581Z,21.70
2023-05-19T11:55:34.113Z,21.60
2023-05-19T11:58:05.799Z,21.72
2023-05-19T12:00:39.041Z,21.66
2023-05-19T12:03:06.440Z,21.52
2023-05-19T12:05:39.865Z,21.57
2023-05-19T12:08:07.683Z,21.60
2023-05-19T12:10:34.619Z,21.41
2023-05-19T12:13:02.090Z,20.95
2023-05-19T12:15:28.821Z,21.26
2023-05-19T12:18:00.562Z,21.17
2023-05-19T12:20:29.168Z,21.66
2023-05-19T12:22:56.289Z,21.88
2023-05-19T12:25:23.795Z,21.76
2023-05-19T12:27:52.720Z,22.11
2023-05-19T12:30:26.801Z,21.62
2023-05-19T12:32:54.218Z,21.52
2023-05-19T12:35:23.312Z,21.17
2023-05-19T12:37:50.521Z,21.70
2023-05-19T12:40:17.144Z,22.12
2023-05-19T12:42:48.710Z,22.19
2023-05-19T12:45:15.335Z,21.79
2023-05-19T12:47:41.861Z,21.12
2023-05-19T12:50:09.907Z,20.75
2023-05-19T12:52:53.273Z,20.24
2023-05-19T12:55:20.870Z,20.34
2023-05-19T12:57:57.854Z,20.59
2023-05-19T13:00:28.077Z,20.23
2023-05-19T13:02:55.347Z,20.36
2023-05-19T13:05:22.731Z,20.74
2023-05-19T13:08:05.948Z,20.62
2023-05-19T13:10:34.616Z,20.76
2023-05-19T13:13:01.747Z,20.73
2023-05-19T13:15:34.389Z,20.81
2023-05-19T13:18:03.642Z,21.10
2023-05-19T13:20:30.392Z,21.53
2023-05-19T13:22:57.358Z,21.87
2023-05-19T13:25:23.982Z,21.98
2023-05-19T13:27:50.948Z,21.70
2023-05-19T13:30:18.715Z,21.81
2023-05-19T13:32:45.976Z,21.80
2023-05-19T13:35:14.085Z,22.10
2023-05-19T13:37:43.525Z,22.34
2023-05-19T13:40:10.946Z,22.63
2023-05-19T13:42:37.882Z,22.49
2023-05-19T13:45:05.116Z,22.27
2023-05-19T13:47:31.641Z,22.34
2023-05-19T13:49:58.152Z,22.24
2023-05-19T13:52:25.288Z,22.27
2023-05-19T13:54:54.544Z,22.14
2023-05-19T13:57:21.157Z,21.98
2023-05-19T14:00:01.013Z,22.20
2023-05-19T14:02:38.664Z,22.43
2023-05-19T14:05:06.679Z,22.44
2023-05-19T14:07:34.858Z,22.19
2023-05-19T14:10:02.570Z,21.99
2023-05-19T14:12:38.149Z,22.05
2023-05-19T14:15:11.485Z,22.46
2023-05-19T14:17:38.233Z,22.62
2023-05-19T14:20:05.437Z,22.79
2023-05-19T14:22:32.245Z,22.76
2023-05-19T14:25:00.255Z,22.68
2023-05-19T14:27:26.684Z,22.20
2023-05-19T14:29:53.174Z,22.13
2023-05-19T14:32:20.282Z,22.44
2023-05-19T14:34:46.920Z,22.38
2023-05-19T14:37:13.351Z,21.95
2023-05-19T14:39:39.831Z,21.81
2023-05-19T14:42:06.348Z,21.83
2023-05-19T14:44:33.040Z,22.13
2023-05-19T14:47:01.161Z,22.27
2023-05-19T14:49:27.682Z,22.63
2023-05-19T14:51:54.352Z,22.99
2023-05-19T14:54:20.822Z,22.76
2023-05-19T14:56:47.284Z,22.56
2023-05-19T14:59:13.901Z,22.27
2023-05-19T15:01:40.405Z,21.24
2023-05-19T15:04:07.054Z,20.47
2023-05-19T15:06:33.502Z,20.76
2023-05-19T15:09:00.059Z,21.29
2023-05-19T15:11:26.548Z,21.56
2023-05-19T15:13:53.159Z,22.04
2023-05-19T15:16:19.642Z,21.96
2023-05-19T15:18:46.198Z,22.23
2023-05-19T15:21:12.749Z,22.26
2023-05-19T15:23:39.276Z,22.29
2023-05-19T15:26:05.943Z,22.63
2023-05-19T15:28:33.544Z,22.55
2023-05-19T15:31:00.038Z,22.31
2023-05-19T15:33:26.602Z,22.44
2023-05-19T15:35:53.275Z,22.14
2023-05-19T15:38:20.250Z,21.91
2023-05-19T15:40:47.079Z,22.03
2023-05-19T15:43:13.856Z,22.04
2023-05-19T15:45:40.772Z,21.72
2023-05-19T15:48:07.328Z,21.55
2023-05-19T15:50:33.989Z,21.32
2023-05-19T15:53:00.688Z,21.34
2023-05-19T15:55:27.108Z,21.76
2023-05-19T15:57:53.691Z,21.77
2023-05-19T16:00:20.514Z,20.97
2023-05-19T16:02:47.078Z,20.41
2023-05-19T16:05:13.649Z,20.08
2023-05-19T16:07:41.975Z,20.42
2023-05-19T16:10:08.961Z,20.85
2023-05-19T16:12:36.539Z,20.96
2023-05-19T16:15:03.318Z,21.14
2023-05-19T16:17:29.925Z,21.48
2023-05-19T16:19:56.577Z,21.25
2023-05-19T16:22:24.714Z,21.33
2023-05-19T16:24:52.070Z,21.36
2023-05-19T16:27:19.087Z,21.23
2023-05-19T16:29:45.820Z,21.20
2023-05-19T16:32:12.772Z,20.87
2023-05-19T16:34:39.579Z,20.58
2023-05-19T16:37:06.146Z,20.23
2023-05-19T16:39:32.707Z,19.89
2023-05-19T16:41:59.132Z,19.71
2023-05-19T16:44:25.717Z,19.86
2023-05-19T16:46:52.229Z,20.10
2023-05-19T16:49:18.669Z,20.25
2023-05-19T16:51:46.797Z,20.29
2023-05-19T16:54:14.688Z,20.23
2023-05-19T16:56:41.145Z,20.38
2023-05-19T16:59:10.152Z,20.22
2023-05-19T17:01:36.698Z,19.95
2023-05-19T17:04:03.250Z,19.77
2023-05-19T17:06:29.755Z,19.42
2023-05-19T17:08:56.348Z,19.11
2023-05-19T17:11:22.924Z,18.95
2023-05-19T17:13:49.477Z,18.87
2023-05-19T17:16:16.208Z,18.72
2023-05-19T17:18:43.586Z,18.78
2023-05-19T17:21:10.492Z,18.88
2023-05-19T17:23:37.767Z,19.01
2023-05-19T17:26:04.485Z,19.25
2023-05-19T17:28:30.953Z,19.26
2023-05-19T17:30:57.384Z,19.24
2023-05-19T17:33:23.918Z,19.11
2023-05-19T17:35:50.510Z,18.92
2023-05-19T17:38:17.072Z,18.73
2023-05-19T17:40:43.510Z,18.60
2023-05-19T17:43:09.981Z,18.51
2023-05-19T17:45:36.484Z,18.40
2023-05-19T17:48:03.159Z,18.44
2023-05-19T17:50:29.667Z,18.71
2023-05-19T17:52:56.420Z,18.85
2023-05-19T17:55:27.922Z,18.73
2023-05-19T17:57:54.653Z,18.80
2023-05-19T18:00:21.604Z,18.66
2023-05-19T18:02:48.485Z,18.55
2023-05-19T18:05:15.700Z,18.33
2023-05-19T18:07:42.302Z,18.18
2023-05-19T18:10:09.690Z,18.10
2023-05-19T18:12:36.218Z,18.05
2023-05-19T18:15:03.674Z,17.86
2023-05-19T18:17:30.148Z,17.81
2023-05-19T18:19:56.677Z,17.62
2023-05-19T18:22:23.131Z,17.57
2023-05-19T18:24:49.646Z,17.47
2023-05-19T18:27:16.129Z,17.30
2023-05-19T18:29:42.544Z,17.26
2023-05-19T18:32:09.282Z,17.14
2023-05-19T18:34:35.868Z,16.96
2023-05-19T18:37:02.341Z,16.87
2023-05-19T18:39:29.426Z,16.75
2023-05-19T18:41:56.018Z,16.68
2023-05-19T18:44:22.533Z,16.65
2023-05-19T18:46:49.088Z,16.48
2023-05-19T18:49:15.688Z,16.40
2023-05-19T18:51:42.489Z,16.30
2023-05-19T18:54:09.050Z,16.17
2023-05-19T18:56:35.637Z,16.03
2023-05-19T18:59:02.106Z,15.95
2023-05-19T19:01:28.943Z,15.83
2023-05-19T19:03:55.723Z,15.70
2023-05-19T19:06:23.249Z,15.61
2023-05-19T19:08:50.004Z,15.58
2023-05-19T19:11:16.574Z,15.47
2023-05-19T19:13:43.614Z,15.31
2023-05-19T19:16:10.853Z,15.20
2023-05-19T19:18:37.305Z,15.17
2023-05-19T19:21:05.680Z,15.15
2023-05-19T19:23:32.565Z,15.11
2023-05-19T19:25:59.108Z,15.05
2023-05-19T19:28:25.707Z,14.96
2023-05-19T19:30:52.355Z,14.84
2023-05-19T19:33:18.902Z,14.75
2023-05-19T19:35:46.897Z,14.64
2023-05-19T19:38:13.708Z,14.56
2023-05-19T19:40:40.327Z,14.48
2023-05-19T19:43:06.805Z,14.46
2023-05-19T19:45:34.679Z,14.36
2023-05-19T19:48:01.647Z,14.29
2023-05-19T19:50:28.284Z,14.23
2023-05-19T19:52:54.814Z,14.21
2023-05-19T19:55:21.549Z,14.15
2023-05-19T19:57:49.235Z,14.09
2023-05-19T20:00:16.593Z,14.08
2023-05-19T20:02:55.853Z,14.00
2023-05-19T20:05:29.699Z,13.93
2023-05-19T20:07:56.148Z,13.89
2023-05-19T20:10:22.691Z,13.86
2023-05-19T20:12:50.496Z,13.80
2023-05-19T20:15:17.216Z,13.70
2023-05-19T20:17:43.721Z,13.65
2023-05-19T20:20:12.071Z,13.61
2023-05-19T20:22:39.034Z,13.53
2023-05-19T20:25:05.959Z,13.46
2023-05-19T20:27:32.456Z,13.38
2023-05-19T20:29:58.959Z,13.31
2023-05-19T20:32:25.590Z,13.16
2023-05-19T20:34:52.119Z,13.02
2023-05-19T20:37:18.543Z,12.94
2023-05-19T20:39:44.992Z,12.84
2023-05-19T20:42:11.449Z,12.88
2023-05-19T20:44:37.956Z,12.94
2023-05-19T20:47:04.751Z,12.90
2023-05-19T20:49:31.290Z,12.85
2023-05-19T20:51:57.817Z,12.84
2023-05-19T20:54:24.379Z,12.83
2023-05-19T20:56:51.802Z,12.81
2023-05-19T20:59:18.224Z,12.79
2023-05-19T21:01:45.683Z,12.75
2023-05-19T21:04:12.231Z,12.69
2023-05-19T21:06:38.798Z,12.65
2023-05-19T21:09:06.691Z,12.63
2023-05-19T21:11:33.925Z,12.61
2023-05-19T21:14:06.095Z,12.58
2023-05-19T21:16:33.869Z,12.54
2023-05-19T21:19:01.664Z,12.49
2023-05-19T21:21:28.359Z,12.45
2023-05-19T21:23:54.843Z,12.44
2023-05-19T21:26:21.980Z,12.44
2023-05-19T21:28:48.554Z,12.44
2023-05-19T21:31:15.254Z,12.37
2023-05-19T21:33:41.798Z,12.38
2023-05-19T21:36:08.398Z,12.30
2023-05-19T21:38:34.889Z,12.29
2023-05-19T21:41:01.378Z,12.25
2023-05-19T21:43:27.888Z,12.24
2023-05-19T21:45:54.328Z,12.27
2023-05-19T21:48:21.579Z,12.26
2023-05-19T21:50:55.234Z,12.23
2023-05-19T21:53:21.718Z,12.21
2023-05-19T21:55:48.177Z,12.19
2023-05-19T21:58:14.671Z,12.20
2023-05-19T22:00:41.422Z,12.16
2023-05-19T22:03:08.084Z,12.13
2023-05-19T22:05:35.260Z,12.13
2023-05-19T22:08:01.921Z,12.12
2023-05-19T22:10:28.324Z,12.09
2023-05-19T22:12:54.809Z,12.08
2023-05-19T22:15:21.262Z,12.07
2023-05-19T22:17:47.861Z,12.09
2023-05-19T22:20:14.429Z,12.12
2023-05-19T22:22:41.272Z,12.08
2023-05-19T22:25:08.100Z,12.04
2023-05-19T22:27:34.575Z,11.96
2023-05-19T22:30:01.106Z,11.94
2023-05-19T22:32:27.660Z,11.88
2023-05-19T22:34:54.245Z,11.83
2023-05-19T22:37:22.925Z,11.81
2023-05-19T22:39:49.455Z,11.76
2023-05-19T22:42:15.920Z,11.73
2023-05-19T22:44:43.430Z,11.69
2023-05-19T22:47:13.358Z,11.64
2023-05-19T22:49:40.869Z,11.62
2023-05-19T22:52:09.952Z,11.61
2023-05-19T22:54:37.097Z,11.55
2023-05-19T22:57:03.718Z,11.48
2023-05-19T22:59:30.524Z,11.47
2023-05-19T23:01:56.957Z,11.44
2023-05-19T23:04:23.581Z,11.38
2023-05-19T23:06:50.230Z,11.32
2023-05-19T23:09:17.844Z,11.26
2023-05-19T23:11:45.056Z,11.22
2023-05-19T23:14:11.488Z,11.17
2023-05-19T23:16:37.927Z,11.09
2023-05-19T23:19:04.469Z,11.01
2023-05-19T23:21:32.385Z,10.97
2023-05-19T23:23:59.403Z,10.87
2023-05-19T23:26:26.926Z,10.86
2023-05-19T23:28:53.423Z,10.83
2023-05-19T23:31:20.123Z,10.82
2023-05-19T23:33:46.625Z,10.76
2023-05-19T23:36:13.217Z,10.71
2023-05-19T23:38:39.726Z,10.69
2023-05-19T23:41:06.180Z,10.66
2023-05-19T23:43:32.837Z,10.64
2023-05-19T23:45:59.619Z,10.59
2023-05-19T23:48:28.628Z,10.50
2023-05-19T23:50:55.304Z,10.46
2023-05-19T23:53:21.722Z,10.42
2023-05-19T23:55:48.185Z,10.39
2023-05-19T23:58:15.866Z,10.35
